sensor_id;sensor_type;location;lat;lon;timestamp;pressure;altitude;pressure_sealevel;temperature;humidity
61573;BME280;47465;43.094;12.434;2024-02-21T00:00:20;99491.44;;;9.35;63.49
61573;BME280;47465;43.094;12.434;2024-02-21T01:38:49;99439.09;;;8.56;65.32
61573;BME280;47465;43.094;12.434;2024-02-21T01:41:26;99431.06;;;8.70;64.22
61573;BME280;47465;43.094;12.434;2024-02-21T01:44:08;99455.56;;;8.95;63.83
61573;BME280;47465;43.094;12.434;2024-02-21T01:49:56;99414.09;;;8.88;62.44
61573;BME280;47465;43.094;12.434;2024-02-21T01:52:36;99464.16;;;9.19;62.49
61573;BME280;47465;43.094;12.434;2024-02-21T01:55:34;99490.66;;;9.27;62.39
61573;BME280;47465;43.094;12.434;2024-02-21T01:58:36;99424.78;;;8.76;63.04
61573;BME280;47465;43.094;12.434;2024-02-21T02:02:14;99491.56;;;9.22;63.58
61573;BME280;47465;43.094;12.434;2024-02-21T02:06:00;99496.13;;;9.08;64.02
61573;BME280;47465;43.094;12.434;2024-02-21T02:16:36;99409.69;;;7.60;70.01
61573;BME280;47465;43.094;12.434;2024-02-21T02:19:35;99415.88;;;7.58;70.35
61573;BME280;47465;43.094;12.434;2024-02-21T02:22:50;99406.25;;;7.46;71.70
61573;BME280;47465;43.094;12.434;2024-02-21T02:25:26;99456.28;;;7.98;69.09
61573;BME280;47465;43.094;12.434;2024-02-21T02:27:53;99411.19;;;8.08;67.15
61573;BME280;47465;43.094;12.434;2024-02-21T02:30:19;99480.66;;;8.56;66.84
61573;BME280;47465;43.094;12.434;2024-02-21T02:32:48;99472.66;;;8.63;66.50
61573;BME280;47465;43.094;12.434;2024-02-21T02:35:36;99479.84;;;8.45;68.83
61573;BME280;47465;43.094;12.434;2024-02-21T02:39:04;99410.41;;;7.90;68.39
61573;BME280;47465;43.094;12.434;2024-02-21T02:49:12;99483.63;;;8.00;70.79
61573;BME280;47465;43.094;12.434;2024-02-21T02:55:19;99478.47;;;7.73;72.97
61573;BME280;47465;43.094;12.434;2024-02-21T03:53:21;99422.28;;;6.88;76.28
61573;BME280;47465;43.094;12.434;2024-02-21T03:55:47;99494.38;;;7.64;73.89
61573;BME280;47465;43.094;12.434;2024-02-21T03:58:15;99452.03;;;7.64;72.26
61573;BME280;47465;43.094;12.434;2024-02-21T04:01:03;99493.34;;;7.97;72.06
61573;BME280;47465;43.094;12.434;2024-02-21T04:04:03;99463.41;;;7.87;71.25
61573;BME280;47465;43.094;12.434;2024-02-21T04:07:15;99491.59;;;7.94;71.03
61573;BME280;47465;43.094;12.434;2024-02-21T04:13:40;99437.81;;;7.80;70.41
61573;BME280;47465;43.094;12.434;2024-02-21T04:16:30;99471.22;;;8.06;71.44
61573;BME280;47465;43.094;12.434;2024-02-21T04:19:25;99395.72;;;7.29;72.54
61573;BME280;47465;43.094;12.434;2024-02-21T04:36:55;99392.31;;;6.79;76.05
61573;BME280;47465;43.094;12.434;2024-02-21T04:39:29;99394.06;;;6.87;76.71
61573;BME280;47465;43.094;12.434;2024-02-21T04:42:25;99405.47;;;7.10;75.26
61573;BME280;47465;43.094;12.434;2024-02-21T04:44:58;99476.72;;;7.66;74.32
61573;BME280;47465;43.094;12.434;2024-02-21T04:47:27;99485.47;;;7.80;72.78
61573;BME280;47465;43.094;12.434;2024-02-21T05:29:56;99428.31;;;7.37;72.35
61573;BME280;47465;43.094;12.434;2024-02-21T05:32:22;99507.66;;;7.48;74.35
61573;BME280;47465;43.094;12.434;2024-02-21T05:34:49;99461.91;;;6.97;75.10
61573;BME280;47465;43.094;12.434;2024-02-21T06:19:10;99455.63;;;4.37;100.00
61573;BME280;47465;43.094;12.434;2024-02-21T06:21:36;99541.25;;;4.90;100.00
61573;BME280;47465;43.094;12.434;2024-02-21T06:24:02;99466.59;;;4.91;100.00
61573;BME280;47465;43.094;12.434;2024-02-21T06:26:50;99539.88;;;5.46;100.00
61573;BME280;47465;43.094;12.434;2024-02-21T06:31:59;99554.91;;;5.56;100.00
61573;BME280;47465;43.094;12.434;2024-02-21T06:39:04;99552.41;;;5.82;100.00
61573;BME280;47465;43.094;12.434;2024-02-21T06:41:42;99533.00;;;5.75;100.00
61573;BME280;47465;43.094;12.434;2024-02-21T06:44:08;99577.91;;;5.85;100.00
61573;BME280;47465;43.094;12.434;2024-02-21T06:46:36;99578.84;;;5.93;100.00
61573;BME280;47465;43.094;12.434;2024-02-21T06:49:02;99579.78;;;5.98;100.00
61573;BME280;47465;43.094;12.434;2024-02-21T06:51:34;99588.59;;;5.97;97.83
61573;BME280;47465;43.094;12.434;2024-02-21T06:54:10;99567.47;;;6.02;95.32
61573;BME280;47465;43.094;12.434;2024-02-21T06:56:43;99499.53;;;5.61;94.38
61573;BME280;47465;43.094;12.434;2024-02-21T06:59:14;99537.47;;;5.90;93.15
61573;BME280;47465;43.094;12.434;2024-02-21T07:01:53;99503.97;;;5.72;92.47
61573;BME280;47465;43.094;12.434;2024-02-21T07:04:38;99588.66;;;6.17;93.64
61573;BME280;47465;43.094;12.434;2024-02-21T07:07:27;99527.78;;;5.82;93.23
61573;BME280;47465;43.094;12.434;2024-02-21T07:10:08;99524.22;;;5.81;93.67
61573;BME280;47465;43.094;12.434;2024-02-21T07:12:41;99551.63;;;6.00;94.45
61573;BME280;47465;43.094;12.434;2024-02-21T07:15:09;99592.25;;;6.34;94.79
61573;BME280;47465;43.094;12.434;2024-02-21T07:17:35;99591.38;;;6.42;93.97
61573;BME280;47465;43.094;12.434;2024-02-21T07:20:13;99561.44;;;6.36;92.58
61573;BME280;47465;43.094;12.434;2024-02-21T07:22:39;99596.75;;;6.72;90.72
61573;BME280;47465;43.094;12.434;2024-02-21T07:25:08;99549.13;;;6.58;90.13
61573;BME280;47465;43.094;12.434;2024-02-21T07:27:34;99600.28;;;6.91;89.80
61573;BME280;47465;43.094;12.434;2024-02-21T07:30:00;99581.78;;;6.91;88.04
61573;BME280;47465;43.094;12.434;2024-02-21T07:32:26;99601.19;;;7.15;86.16
61573;BME280;47465;43.094;12.434;2024-02-21T07:34:52;99545.66;;;6.96;85.23
61573;BME280;47465;43.094;12.434;2024-02-21T07:37:18;99598.53;;;7.36;84.87
61573;BME280;47465;43.094;12.434;2024-02-21T07:39:44;99552.69;;;7.20;83.74
61573;BME280;47465;43.094;12.434;2024-02-21T07:42:11;99594.97;;;7.56;84.97
61573;BME280;47465;43.094;12.434;2024-02-21T07:44:37;99594.06;;;7.69;83.74
61573;BME280;47465;43.094;12.434;2024-02-21T07:47:03;99561.41;;;7.73;82.86
61573;BME280;47465;43.094;12.434;2024-02-21T07:49:29;99512.91;;;7.60;82.17
61573;BME280;47465;43.094;12.434;2024-02-21T07:51:55;99584.19;;;8.22;81.36
61573;BME280;47465;43.094;12.434;2024-02-21T07:54:44;99590.31;;;8.33;78.45
61573;BME280;47465;43.094;12.434;2024-02-21T07:57:12;99513.59;;;8.10;77.06
61573;BME280;47465;43.094;12.434;2024-02-21T07:59:38;99586.59;;;8.74;76.71
61573;BME280;47465;43.094;12.434;2024-02-21T08:02:03;99515.16;;;8.50;77.12
61573;BME280;47465;43.094;12.434;2024-02-21T08:04:32;99578.41;;;9.05;75.95
61573;BME280;47465;43.094;12.434;2024-02-21T08:06:58;99574.72;;;9.21;75.86
61573;BME280;47465;43.094;12.434;2024-02-21T08:09:27;99506.78;;;9.02;75.39
61573;BME280;47465;43.094;12.434;2024-02-21T08:11:54;99534.78;;;9.37;74.65
61573;BME280;47465;43.094;12.434;2024-02-21T08:14:21;99576.78;;;9.81;72.88
61573;BME280;47465;43.094;12.434;2024-02-21T08:16:47;99577.50;;;9.97;72.65
61573;BME280;47465;43.094;12.434;2024-02-21T08:19:14;99510.50;;;9.72;71.56
61573;BME280;47465;43.094;12.434;2024-02-21T08:21:40;99590.41;;;10.30;70.72
61573;BME280;47465;43.094;12.434;2024-02-21T08:24:06;99556.75;;;10.28;70.26
61573;BME280;47465;43.094;12.434;2024-02-21T08:26:32;99590.06;;;10.56;69.31
61573;BME280;47465;43.094;12.434;2024-02-21T08:29:01;99591.63;;;10.71;68.99
61573;BME280;47465;43.094;12.434;2024-02-21T08:31:31;99579.97;;;10.82;68.39
61573;BME280;47465;43.094;12.434;2024-02-21T08:34:05;99587.78;;;10.92;67.82
61573;BME280;47465;43.094;12.434;2024-02-21T08:36:32;99583.16;;;11.03;67.29
61573;BME280;47465;43.094;12.434;2024-02-21T08:39:01;99585.72;;;11.10;67.16
61573;BME280;47465;43.094;12.434;2024-02-21T08:41:30;99590.16;;;11.10;67.46
61573;BME280;47465;43.094;12.434;2024-02-21T08:43:58;99524.09;;;10.81;66.86
61573;BME280;47465;43.094;12.434;2024-02-21T08:53:00;99580.44;;;11.60;66.09
61573;BME280;47465;43.094;12.434;2024-02-21T08:58:19;99502.03;;;11.25;66.11
61573;BME280;47465;43.094;12.434;2024-02-21T09:00:56;99529.00;;;11.55;66.09
61573;BME280;47465;43.094;12.434;2024-02-21T09:03:22;99568.09;;;12.03;65.62
61573;BME280;47465;43.094;12.434;2024-02-21T09:05:48;99576.97;;;12.03;63.56
61573;BME280;47465;43.094;12.434;2024-02-21T09:08:16;99585.59;;;12.16;64.08
61573;BME280;47465;43.094;12.434;2024-02-21T09:10:42;99532.78;;;11.91;64.08
61573;BME280;47465;43.094;12.434;2024-02-21T09:13:08;99578.63;;;12.10;63.30
61573;BME280;47465;43.094;12.434;2024-02-21T09:15:34;99506.59;;;11.67;64.86
61573;BME280;47465;43.094;12.434;2024-02-21T09:18:00;99530.75;;;12.04;65.09
61573;BME280;47465;43.094;12.434;2024-02-21T09:20:28;99581.47;;;12.43;63.89
61573;BME280;47465;43.094;12.434;2024-02-21T09:22:58;99509.41;;;12.06;63.82
61573;BME280;47465;43.094;12.434;2024-02-21T09:25:26;99579.41;;;12.56;64.11
61573;BME280;47465;43.094;12.434;2024-02-21T09:27:53;99551.94;;;12.52;64.23
61573;BME280;47465;43.094;12.434;2024-02-21T09:30:20;99505.06;;;12.41;63.52
61573;BME280;47465;43.094;12.434;2024-02-21T09:32:46;99525.72;;;12.70;63.21
61573;BME280;47465;43.094;12.434;2024-02-21T09:35:12;99558.44;;;13.15;61.91
61573;BME280;47465;43.094;12.434;2024-02-21T09:37:39;99533.00;;;13.01;61.25
61573;BME280;47465;43.094;12.434;2024-02-21T09:40:06;99575.66;;;13.04;61.72
61573;BME280;47465;43.094;12.434;2024-02-21T09:42:37;99556.63;;;13.16;61.09
61573;BME280;47465;43.094;12.434;2024-02-21T09:45:07;99573.00;;;13.40;60.02
61573;BME280;47465;43.094;12.434;2024-02-21T09:47:55;99515.47;;;13.25;60.06
61573;BME280;47465;43.094;12.434;2024-02-21T09:50:26;99573.09;;;13.71;59.18
61573;BME280;47465;43.094;12.434;2024-02-21T09:52:54;99566.84;;;13.70;59.07
61573;BME280;47465;43.094;12.434;2024-02-21T09:55:21;99575.22;;;13.91;58.66
61573;BME280;47465;43.094;12.434;2024-02-21T09:57:54;99564.81;;;13.80;57.57
61573;BME280;47465;43.094;12.434;2024-02-21T10:00:20;99501.44;;;13.51;58.06
61573;BME280;47465;43.094;12.434;2024-02-21T10:02:54;99545.75;;;13.92;58.47
61573;BME280;47465;43.094;12.434;2024-02-21T10:05:20;99566.31;;;14.22;57.94
61573;BME280;47465;43.094;12.434;2024-02-21T10:07:46;99522.94;;;14.10;58.27
61573;BME280;47465;43.094;12.434;2024-02-21T10:10:14;99483.03;;;14.03;57.27
61573;BME280;47465;43.094;12.434;2024-02-21T10:12:52;99565.09;;;14.63;55.84
61573;BME280;47465;43.094;12.434;2024-02-21T10:15:20;99565.44;;;14.81;55.35
61573;BME280;47465;43.094;12.434;2024-02-21T10:17:49;99491.31;;;14.53;50.00
61573;BME280;47465;43.094;12.434;2024-02-21T10:20:16;99582.38;;;14.51;43.63
61573;BME280;47465;43.094;12.434;2024-02-21T10:22:44;99576.06;;;14.84;44.20
61573;BME280;47465;43.094;12.434;2024-02-21T10:25:11;99566.13;;;14.87;42.47
61573;BME280;47465;43.094;12.434;2024-02-21T10:27:37;99563.78;;;14.76;41.29
61573;BME280;47465;43.094;12.434;2024-02-21T10:30:13;99555.06;;;14.98;40.65
61573;BME280;47465;43.094;12.434;2024-02-21T10:38:11;99468.41;;;14.72;41.22
61573;BME280;47465;43.094;12.434;2024-02-21T10:40:37;99537.97;;;15.02;41.10
61573;BME280;47465;43.094;12.434;2024-02-21T10:43:08;99470.41;;;14.66;40.19
61573;BME280;47465;43.094;12.434;2024-02-21T10:46:03;99540.91;;;15.21;40.19
61573;BME280;47465;43.094;12.434;2024-02-21T10:48:43;99494.59;;;15.17;39.11
61573;BME280;47465;43.094;12.434;2024-02-21T10:51:15;99451.34;;;15.03;40.89
61573;BME280;47465;43.094;12.434;2024-02-21T10:53:50;99526.22;;;15.59;40.42
61573;BME280;47465;43.094;12.434;2024-02-21T10:56:31;99449.03;;;15.17;39.69
61573;BME280;47465;43.094;12.434;2024-02-21T10:59:30;99509.94;;;15.39;42.24
61573;BME280;47465;43.094;12.434;2024-02-21T11:01:59;99504.09;;;15.53;40.97
61573;BME280;47465;43.094;12.434;2024-02-21T11:04:25;99432.34;;;15.09;39.98
61573;BME280;47465;43.094;12.434;2024-02-21T11:06:52;99493.41;;;15.26;39.86
61573;BME280;47465;43.094;12.434;2024-02-21T11:09:18;99492.97;;;15.38;39.33
61573;BME280;47465;43.094;12.434;2024-02-21T11:11:56;99487.41;;;15.45;39.62
61573;BME280;47465;43.094;12.434;2024-02-21T11:14:26;99443.78;;;15.39;40.72
61573;BME280;47465;43.094;12.434;2024-02-21T11:16:52;99415.72;;;15.01;39.24
61573;BME280;47465;43.094;12.434;2024-02-21T11:19:22;99455.19;;;15.46;37.78
61573;BME280;47465;43.094;12.434;2024-02-21T11:21:55;99439.44;;;15.37;38.42
61573;BME280;47465;43.094;12.434;2024-02-21T11:24:28;99448.25;;;15.40;38.12
61573;BME280;47465;43.094;12.434;2024-02-21T11:26:55;99416.44;;;15.31;38.06
61573;BME280;47465;43.094;12.434;2024-02-21T11:29:23;99460.06;;;15.60;38.32
61573;BME280;47465;43.094;12.434;2024-02-21T11:31:50;99429.47;;;15.40;39.06
61573;BME280;47465;43.094;12.434;2024-02-21T11:47:45;99440.34;;;15.61;37.01
61573;BME280;47465;43.094;12.434;2024-02-21T11:50:13;99359.84;;;15.39;37.25
61573;BME280;47465;43.094;12.434;2024-02-21T11:52:39;99426.97;;;15.85;38.38
61573;BME280;47465;43.094;12.434;2024-02-21T11:55:11;99398.72;;;15.76;37.77
61573;BME280;47465;43.094;12.434;2024-02-21T12:00:17;99346.63;;;15.58;36.54
61573;BME280;47465;43.094;12.434;2024-02-21T12:02:49;99344.00;;;15.56;36.25
61573;BME280;47465;43.094;12.434;2024-02-21T12:07:56;99340.72;;;15.48;37.80
61573;BME280;47465;43.094;12.434;2024-02-21T12:10:42;99400.88;;;15.90;37.71
61573;BME280;47465;43.094;12.434;2024-02-21T12:18:22;99384.28;;;16.02;37.26
61573;BME280;47465;43.094;12.434;2024-02-21T12:20:48;99312.97;;;15.74;36.07
61573;BME280;47465;43.094;12.434;2024-02-21T12:25:47;99335.41;;;15.94;36.29
61573;BME280;47465;43.094;12.434;2024-02-21T12:28:13;99360.84;;;16.07;36.85
61573;BME280;47465;43.094;12.434;2024-02-21T12:30:39;99326.25;;;15.77;35.34
61573;BME280;47465;43.094;12.434;2024-02-21T12:33:08;99278.38;;;15.67;36.07
61573;BME280;47465;43.094;12.434;2024-02-21T12:35:55;99350.56;;;16.18;36.00
61573;BME280;47465;43.094;12.434;2024-02-21T12:38:24;99265.78;;;15.92;36.17
61573;BME280;47465;43.094;12.434;2024-02-21T12:41:17;99338.19;;;16.36;33.27
61573;BME280;47465;43.094;12.434;2024-02-21T12:43:43;99342.97;;;16.50;33.71
61573;BME280;47465;43.094;12.434;2024-02-21T12:46:09;99322.28;;;16.32;33.83
61573;BME280;47465;43.094;12.434;2024-02-21T12:48:35;99305.03;;;16.15;33.56
61573;BME280;47465;43.094;12.434;2024-02-21T12:51:04;99269.31;;;15.93;34.44
61573;BME280;47465;43.094;12.434;2024-02-21T12:53:32;99260.50;;;15.89;34.44
61573;BME280;47465;43.094;12.434;2024-02-21T13:04:34;99320.56;;;16.51;33.14
61573;BME280;47465;43.094;12.434;2024-02-21T13:07:14;99310.06;;;16.45;33.60
61573;BME280;47465;43.094;12.434;2024-02-21T13:09:41;99244.22;;;16.16;33.34
61573;BME280;47465;43.094;12.434;2024-02-21T13:12:08;99311.09;;;16.63;33.01
61573;BME280;47465;43.094;12.434;2024-02-21T13:14:34;99305.06;;;16.58;33.46
61573;BME280;47465;43.094;12.434;2024-02-21T13:17:01;99228.44;;;16.08;33.17
61573;BME280;47465;43.094;12.434;2024-02-21T13:19:27;99295.44;;;16.52;32.64
61573;BME280;47465;43.094;12.434;2024-02-21T13:21:56;99285.50;;;16.54;33.24
61573;BME280;47465;43.094;12.434;2024-02-21T13:24:26;99286.47;;;16.53;33.12
61573;BME280;47465;43.094;12.434;2024-02-21T13:26:52;99275.56;;;16.36;34.06
61573;BME280;47465;43.094;12.434;2024-02-21T13:29:18;99276.19;;;16.42;33.96
61573;BME280;47465;43.094;12.434;2024-02-21T13:31:49;99253.44;;;16.51;32.80
61573;BME280;47465;43.094;12.434;2024-02-21T13:34:18;99291.97;;;16.71;31.64
61573;BME280;47465;43.094;12.434;2024-02-21T13:36:44;99268.13;;;16.63;32.19
61573;BME280;47465;43.094;12.434;2024-02-21T13:39:11;99214.75;;;16.35;32.06
61573;BME280;47465;43.094;12.434;2024-02-21T13:41:42;99255.78;;;16.59;32.67
61573;BME280;47465;43.094;12.434;2024-02-21T13:44:09;99278.69;;;16.68;31.96
61573;BME280;47465;43.094;12.434;2024-02-21T13:46:35;99215.06;;;16.29;33.28
61573;BME280;47465;43.094;12.434;2024-02-21T13:49:03;99269.13;;;16.60;33.75
61573;BME280;47465;43.094;12.434;2024-02-21T13:51:33;99235.44;;;16.53;30.92
61573;BME280;47465;43.094;12.434;2024-02-21T13:54:00;99271.81;;;16.40;31.83
61573;BME280;47465;43.094;12.434;2024-02-21T13:56:26;99261.81;;;16.43;30.81
61573;BME280;47465;43.094;12.434;2024-02-21T13:58:57;99181.69;;;15.71;31.78
61573;BME280;47465;43.094;12.434;2024-02-21T14:01:24;99249.88;;;15.88;32.32
61573;BME280;47465;43.094;12.434;2024-02-21T14:03:50;99267.06;;;15.82;32.48
61573;BME280;47465;43.094;12.434;2024-02-21T14:06:18;99197.44;;;15.57;32.06
61573;BME280;47465;43.094;12.434;2024-02-21T14:08:49;99185.84;;;15.56;32.68
61573;BME280;47465;43.094;12.434;2024-02-21T14:11:17;99204.28;;;15.88;32.01
61573;BME280;47465;43.094;12.434;2024-02-21T14:13:49;99187.00;;;15.73;32.32
61573;BME280;47465;43.094;12.434;2024-02-21T14:16:25;99252.81;;;16.24;31.82
61573;BME280;47465;43.094;12.434;2024-02-21T14:18:51;99248.34;;;16.25;31.75
61573;BME280;47465;43.094;12.434;2024-02-21T14:21:17;99179.84;;;15.73;31.46
61573;BME280;47465;43.094;12.434;2024-02-21T14:26:24;99179.31;;;15.86;32.06
61573;BME280;47465;43.094;12.434;2024-02-21T14:28:50;99199.22;;;16.22;33.18
61573;BME280;47465;43.094;12.434;2024-02-21T14:31:16;99177.16;;;16.16;32.98
61573;BME280;47465;43.094;12.434;2024-02-21T14:33:44;99239.75;;;16.57;32.94
61573;BME280;47465;43.094;12.434;2024-02-21T14:36:11;99163.84;;;16.13;34.07
61573;BME280;47465;43.094;12.434;2024-02-21T14:38:37;99210.97;;;16.40;34.25
61573;BME280;47465;43.094;12.434;2024-02-21T14:41:04;99225.47;;;16.57;33.69
61573;BME280;47465;43.094;12.434;2024-02-21T14:43:30;99223.56;;;16.59;34.73
61573;BME280;47465;43.094;12.434;2024-02-21T14:46:11;99192.59;;;16.31;35.96
61573;BME280;47465;43.094;12.434;2024-02-21T14:48:41;99239.59;;;16.60;36.32
61573;BME280;47465;43.094;12.434;2024-02-21T14:53:43;99213.59;;;16.42;37.80
61573;BME280;47465;43.094;12.434;2024-02-21T14:56:15;99229.69;;;16.42;36.74
61573;BME280;47465;43.094;12.434;2024-02-21T14:58:43;99213.50;;;16.43;37.10
61573;BME280;47465;43.094;12.434;2024-02-21T15:01:09;99220.28;;;16.32;36.56
61573;BME280;47465;43.094;12.434;2024-02-21T15:03:36;99212.63;;;16.22;36.04
61573;BME280;47465;43.094;12.434;2024-02-21T15:06:04;99182.78;;;16.10;36.65
61573;BME280;47465;43.094;12.434;2024-02-21T15:08:30;99185.50;;;16.08;36.14
61573;BME280;47465;43.094;12.434;2024-02-21T15:10:57;99148.94;;;15.85;37.20
61573;BME280;47465;43.094;12.434;2024-02-21T15:13:25;99210.22;;;16.16;36.09
61573;BME280;47465;43.094;12.434;2024-02-21T15:15:52;99169.81;;;15.99;36.56
61573;BME280;47465;43.094;12.434;2024-02-21T15:18:19;99211.69;;;16.03;35.90
61573;BME280;47465;43.094;12.434;2024-02-21T15:20:45;99217.72;;;16.08;36.52
61573;BME280;47465;43.094;12.434;2024-02-21T15:23:11;99193.75;;;15.83;36.04
61573;BME280;47465;43.094;12.434;2024-02-21T15:25:37;99216.91;;;16.06;35.93
61573;BME280;47465;43.094;12.434;2024-02-21T15:28:05;99201.16;;;15.98;35.82
61573;BME280;47465;43.094;12.434;2024-02-21T15:30:34;99132.84;;;15.63;36.01
61573;BME280;47465;43.094;12.434;2024-02-21T15:33:01;99189.81;;;15.92;36.30
61573;BME280;47465;43.094;12.434;2024-02-21T15:35:27;99134.53;;;15.66;36.18
61573;BME280;47465;43.094;12.434;2024-02-21T15:37:54;99137.75;;;15.53;36.82
61573;BME280;47465;43.094;12.434;2024-02-21T15:40:21;99207.81;;;15.88;35.98
61573;BME280;47465;43.094;12.434;2024-02-21T15:42:47;99189.09;;;15.65;36.91
61573;BME280;47465;43.094;12.434;2024-02-21T15:45:29;99208.31;;;15.76;36.78
61573;BME280;47465;43.094;12.434;2024-02-21T15:47:56;99186.81;;;15.55;38.00
61573;BME280;47465;43.094;12.434;2024-02-21T15:50:22;99160.63;;;15.40;37.00
61573;BME280;47465;43.094;12.434;2024-02-21T15:52:48;99208.47;;;15.49;38.22
61573;BME280;47465;43.094;12.434;2024-02-21T15:55:14;99169.75;;;15.12;38.67
61573;BME280;47465;43.094;12.434;2024-02-21T15:57:40;99209.38;;;15.26;37.83
61573;BME280;47465;43.094;12.434;2024-02-21T16:00:07;99199.63;;;15.25;37.99
61573;BME280;47465;43.094;12.434;2024-02-21T16:02:40;99206.66;;;15.28;38.39
61573;BME280;47465;43.094;12.434;2024-02-21T16:05:08;99134.28;;;14.84;38.41
61573;BME280;47465;43.094;12.434;2024-02-21T16:07:36;99177.44;;;14.98;38.82
61573;BME280;47465;43.094;12.434;2024-02-21T16:10:03;99162.97;;;14.80;38.08
61573;BME280;47465;43.094;12.434;2024-02-21T16:12:30;99197.81;;;15.02;38.50
61573;BME280;47465;43.094;12.434;2024-02-21T16:14:55;99174.03;;;14.71;39.34
61573;BME280;47465;43.094;12.434;2024-02-21T16:17:21;99200.41;;;14.82;38.91
61573;BME280;47465;43.094;12.434;2024-02-21T16:19:49;99217.09;;;14.88;39.60
61573;BME280;47465;43.094;12.434;2024-02-21T16:22:15;99211.38;;;14.74;39.88
61573;BME280;47465;43.094;12.434;2024-02-21T16:24:41;99164.56;;;14.35;39.73
61573;BME280;47465;43.094;12.434;2024-02-21T16:27:07;99210.69;;;14.69;40.10
61573;BME280;47465;43.094;12.434;2024-02-21T16:29:34;99212.81;;;14.59;40.59
61573;BME280;47465;43.094;12.434;2024-02-21T16:32:01;99208.13;;;14.39;41.02
61573;BME280;47465;43.094;12.434;2024-02-21T16:34:27;99191.31;;;14.10;41.45
61573;BME280;47465;43.094;12.434;2024-02-21T16:36:55;99122.63;;;13.61;42.14
61573;BME280;47465;43.094;12.434;2024-02-21T16:39:23;99145.69;;;13.63;42.07
61573;BME280;47465;43.094;12.434;2024-02-21T16:41:55;99140.66;;;13.54;42.02
61573;BME280;47465;43.094;12.434;2024-02-21T16:44:31;99142.38;;;13.28;44.80
61573;BME280;47465;43.094;12.434;2024-02-21T16:47:02;99129.28;;;13.19;43.70
61573;BME280;47465;43.094;12.434;2024-02-21T16:49:36;99131.31;;;13.11;42.67
61573;BME280;47465;43.094;12.434;2024-02-21T16:52:07;99210.16;;;13.52;42.95
61573;BME280;47465;43.094;12.434;2024-02-21T16:54:32;99164.56;;;13.01;45.65
61573;BME280;47465;43.094;12.434;2024-02-21T16:56:58;99201.03;;;13.31;44.04
61573;BME280;47465;43.094;12.434;2024-02-21T16:59:25;99134.66;;;12.89;44.53
61573;BME280;47465;43.094;12.434;2024-02-21T17:01:51;99137.94;;;12.69;44.79
61573;BME280;47465;43.094;12.434;2024-02-21T17:04:18;99181.34;;;13.06;43.53
61573;BME280;47465;43.094;12.434;2024-02-21T17:06:44;99210.00;;;13.29;42.49
61573;BME280;47465;43.094;12.434;2024-02-21T17:09:12;99138.16;;;12.91;42.83
61573;BME280;47465;43.094;12.434;2024-02-21T17:11:39;99172.06;;;13.18;42.53
61573;BME280;47465;43.094;12.434;2024-02-21T17:14:06;99212.13;;;13.47;41.09
61573;BME280;47465;43.094;12.434;2024-02-21T17:16:32;99214.19;;;13.66;40.85
61573;BME280;47465;43.094;12.434;2024-02-21T17:19:00;99150.38;;;13.28;40.44
61573;BME280;47465;43.094;12.434;2024-02-21T17:21:32;99142.16;;;13.36;40.18
61573;BME280;47465;43.094;12.434;2024-02-21T17:24:00;99153.06;;;13.28;40.93
61573;BME280;47465;43.094;12.434;2024-02-21T17:26:52;99148.69;;;13.24;40.22
61573;BME280;47465;43.094;12.434;2024-02-21T17:29:19;99150.06;;;13.09;42.47
61573;BME280;47465;43.094;12.434;2024-02-21T17:31:50;99150.78;;;12.86;43.11
61573;BME280;47465;43.094;12.434;2024-02-21T17:34:18;99225.34;;;12.92;45.04
61573;BME280;47465;43.094;12.434;2024-02-21T17:36:47;99144.13;;;12.70;41.56
61573;BME280;47465;43.094;12.434;2024-02-21T17:39:14;99148.25;;;12.82;42.30
61573;BME280;47465;43.094;12.434;2024-02-21T17:47:19;99230.63;;;13.24;41.25
61573;BME280;47465;43.094;12.434;2024-02-21T18:07:25;99242.97;;;12.00;49.34
61573;BME280;47465;43.094;12.434;2024-02-21T19:38:46;99257.66;;;9.49;64.54
61573;BME280;47465;43.094;12.434;2024-02-21T19:41:15;99258.59;;;9.46;65.00
61573;BME280;47465;43.094;12.434;2024-02-21T19:43:41;99239.38;;;9.29;64.00
61573;BME280;47465;43.094;12.434;2024-02-21T19:46:07;99257.69;;;9.47;64.17
61573;BME280;47465;43.094;12.434;2024-02-21T19:48:34;99201.63;;;9.10;66.54
61573;BME280;47465;43.094;12.434;2024-02-21T19:51:00;99256.97;;;9.34;67.38
61573;BME280;47465;43.094;12.434;2024-02-21T19:56:42;99255.47;;;9.16;68.24
61573;BME280;47465;43.094;12.434;2024-02-21T19:59:09;99159.75;;;8.68;67.47
61573;BME280;47465;43.094;12.434;2024-02-21T20:01:43;99257.19;;;9.19;67.09
61573;BME280;47465;43.094;12.434;2024-02-21T20:04:10;99259.91;;;9.17;67.24
61573;BME280;47465;43.094;12.434;2024-02-21T20:06:47;99264.38;;;9.12;67.44
61573;BME280;47465;43.094;12.434;2024-02-21T20:09:22;99227.63;;;8.81;67.91
61573;BME280;47465;43.094;12.434;2024-02-21T20:11:52;99272.41;;;9.06;67.63
61573;BME280;47465;43.094;12.434;2024-02-21T20:14:18;99272.38;;;9.08;67.80
61573;BME280;47465;43.094;12.434;2024-02-21T20:16:45;99272.50;;;8.98;68.28
61573;BME280;47465;43.094;12.434;2024-02-21T20:19:13;99187.44;;;8.44;68.39
61573;BME280;47465;43.094;12.434;2024-02-21T20:21:43;99197.16;;;8.43;68.99
61573;BME280;47465;43.094;12.434;2024-02-21T20:24:11;99185.75;;;8.34;68.86
61573;BME280;47465;43.094;12.434;2024-02-21T20:26:41;99267.47;;;8.78;69.19
61573;BME280;47465;43.094;12.434;2024-02-21T20:29:13;99271.88;;;8.78;68.65
61573;BME280;47465;43.094;12.434;2024-02-21T20:31:42;99192.03;;;8.25;69.89
61573;BME280;47465;43.094;12.434;2024-02-21T20:34:14;99183.28;;;8.20;70.09
61573;BME280;47465;43.094;12.434;2024-02-21T20:36:42;99269.38;;;8.64;71.04
61573;BME280;47465;43.094;12.434;2024-02-21T20:39:09;99190.47;;;8.06;70.59
61573;BME280;47465;43.094;12.434;2024-02-21T20:41:36;99269.50;;;8.55;71.37
61573;BME280;47465;43.094;12.434;2024-02-21T20:44:03;99215.03;;;8.21;72.13